CBA6 weather

Bala/Muskoka Float Flying Club Seaplane Base
Ontario, Canada

Public forecast

Using degrees Celsius for public forecast. Weather courtesy of forecast.io.

Closest aviation weather report (METAR) to Bala/Muskoka Float Flying Club Seaplane Base

Closest report is Muskoka Airport, 11.3 nm (20.9 km) ESE. Retrieved 2019/10/20 04:00 UTC (35 minutes ago):

CYQA 200400Z AUTO 11003KT 9SM CLR 04/02 A2992 RMK SLP142

Closest aviation forecast (TAF) to Bala/Muskoka Float Flying Club Seaplane Base

Forecast is more than 6 hours old.

Closest forecast is Muskoka Airport, 11.3 nm (20.9 km) ESE. Retrieved 2019/10/19 20:00 UTC (9 hours ago):

TAF CYQA 191938Z 1920/2002 16007KT P6SM FEW150 RMK FCST BASED ON AUTO OBS NXT FCST WILL BE ISSUED AT 201145Z